Time;durP1;ratioP1;P1;durP2;ratioP2;P2;SDS_P1;SDS_P2;PMS_P1;PMS_P2;Temp;Humidity;BMP_temperature;BMP_pressure;BME280_temperature;BME280_humidity;BME280_pressure;Samples;Min_cycle;Max_cycle;Signal;HPM_P1;HPM_P2
2023/07/10 00:01:04;;;;;;;1.03;0.93;;;17.30;99.90;;;;;;5075625;28;20282;-75
2023/07/10 00:03:31;;;;;;;0.50;0.50;;;17.30;99.90;;;;;;5071464;28;20593;-75
2023/07/10 00:05:57;;;;;;;0.33;0.20;;;17.30;99.90;;;;;;5073612;28;20308;-75
2023/07/10 00:08:23;;;;;;;0.30;0.30;;;17.30;99.90;;;;;;5090923;28;20372;-75
2023/07/10 00:10:50;;;;;;;0.00;0.00;;;17.30;99.90;;;;;;5071849;28;20282;-75
2023/07/10 00:13:21;;;;;;;0.57;0.30;;;17.30;99.90;;;;;;5085463;28;20289;-75
2023/07/10 00:15:51;;;;;;;0.10;0.00;;;17.30;99.90;;;;;;5066699;28;20301;-75
2023/07/10 00:18:19;;;;;;;0.10;0.03;;;17.30;99.90;;;;;;5091185;28;20292;-75
2023/07/10 00:20:45;;;;;;;0.00;0.00;;;17.30;99.90;;;;;;5077296;28;20342;-75
2023/07/10 00:23:11;;;;;;;0.53;0.53;;;17.30;99.90;;;;;;5084965;28;20281;-75
2023/07/10 00:25:37;;;;;;;0.30;0.30;;;17.30;99.90;;;;;;5077378;28;20120;-75
2023/07/10 00:28:15;;;;;;;0.20;0.20;;;17.30;99.90;;;;;;5065722;28;20302;-75
2023/07/10 00:30:41;;;;;;;1.13;0.30;;;17.30;99.90;;;;;;5079596;28;20055;-75
2023/07/10 00:33:10;;;;;;;0.23;0.23;;;17.30;99.90;;;;;;5097068;28;20281;-75
2023/07/10 00:35:36;;;;;;;0.00;0.00;;;17.30;99.90;;;;;;5079977;28;20046;-75
2023/07/10 00:38:18;;;;;;;0.00;0.00;;;17.30;99.90;;;;;;5079694;28;20300;-75
2023/07/10 00:40:46;;;;;;;2.73;0.60;;;17.30;99.90;;;;;;5074368;28;20346;-76
2023/07/10 00:43:24;;;;;;;0.30;0.10;;;17.30;99.90;;;;;;5100073;28;20333;-76
2023/07/10 00:45:51;;;;;;;0.20;0.20;;;17.30;99.90;;;;;;5074797;28;20353;-76
2023/07/10 00:48:40;;;;;;;0.23;0.23;;;17.30;99.90;;;;;;5074145;28;20409;-75
2023/07/10 00:51:15;;;;;;;0.37;0.20;;;17.30;99.90;;;;;;5064812;28;20288;-75
2023/07/10 00:53:44;;;;;;;0.00;0.00;;;17.30;99.90;;;;;;5091209;28;20293;-75
2023/07/10 00:56:17;;;;;;;4.30;0.40;;;17.30;99.90;;;;;;5081329;28;20281;-76
2023/07/10 00:58:45;;;;;;;0.17;0.13;;;17.30;99.90;;;;;;5073696;28;20298;-76
2023/07/10 01:01:23;;;;;;;0.20;0.20;;;17.20;99.90;;;;;;5094997;28;20311;-75
2023/07/10 01:03:51;;;;;;;0.53;0.43;;;17.20;99.90;;;;;;5088175;28;20273;-75
2023/07/10 01:06:25;;;;;;;0.17;0.10;;;17.20;99.90;;;;;;5074570;28;20604;-75
2023/07/10 01:09:03;;;;;;;0.50;0.50;;;17.20;99.90;;;;;;5092435;28;20290;-75
2023/07/10 01:11:30;;;;;;;0.40;0.40;;;17.10;99.90;;;;;;5081182;28;20780;-76
2023/07/10 01:13:58;;;;;;;0.00;0.00;;;17.10;99.90;;;;;;5077047;28;20296;-76
2023/07/10 01:16:25;;;;;;;0.40;0.40;;;17.10;99.90;;;;;;5100956;28;20308;-77
2023/07/10 01:18:51;;;;;;;0.10;0.10;;;17.10;99.90;;;;;;5091476;28;20818;-76
2023/07/10 01:21:26;;;;;;;0.10;0.10;;;17.00;99.90;;;;;;5089210;28;20846;-76
2023/07/10 01:23:53;;;;;;;0.20;0.20;;;17.00;99.90;;;;;;5082822;28;20289;-76
2023/07/10 01:26:19;;;;;;;0.20;0.17;;;16.90;99.90;;;;;;5069124;28;20289;-76
2023/07/10 01:28:46;;;;;;;1.23;0.13;;;16.90;99.90;;;;;;5062799;28;20294;-76
2023/07/10 01:31:16;;;;;;;0.27;0.10;;;16.90;99.90;;;;;;5086885;28;20332;-76
2023/07/10 01:33:53;;;;;;;0.70;0.40;;;16.90;99.90;;;;;;5074075;28;20277;-76
2023/07/10 01:36:23;;;;;;;0.03;0.00;;;16.90;99.90;;;;;;5068445;28;20301;-76
2023/07/10 01:38:55;;;;;;;0.10;0.10;;;17.00;99.90;;;;;;5075689;28;20282;-76
2023/07/10 01:41:31;;;;;;;0.27;0.27;;;17.00;99.90;;;;;;5078084;28;20807;-76
2023/07/10 01:43:57;;;;;;;0.20;0.20;;;17.00;99.90;;;;;;5092765;28;20277;-76
2023/07/10 01:46:24;;;;;;;1.40;0.10;;;17.00;99.90;;;;;;5094844;28;20281;-76
2023/07/10 01:48:54;;;;;;;0.10;0.10;;;16.90;99.90;;;;;;5090440;28;20240;-76
2023/07/10 01:51:21;;;;;;;0.10;0.10;;;16.90;99.90;;;;;;5094485;28;20675;-76
2023/07/10 01:53:47;;;;;;;0.10;0.10;;;16.90;99.90;;;;;;5095343;28;20277;-76
2023/07/10 01:56:16;;;;;;;0.00;0.00;;;16.80;99.90;;;;;;5094451;28;20308;-76
2023/07/10 01:58:42;;;;;;;0.00;0.00;;;16.80;99.90;;;;;;5094518;28;20232;-76
2023/07/10 02:01:08;;;;;;;0.40;0.40;;;16.80;99.90;;;;;;5077142;28;20380;-76
2023/07/10 02:03:34;;;;;;;0.00;0.00;;;16.80;99.90;;;;;;5093436;28;20036;-76
2023/07/10 02:06:00;;;;;;;0.00;0.00;;;16.80;99.90;;;;;;5077465;28;20284;-76
2023/07/10 02:08:25;;;;;;;0.10;0.00;;;16.80;99.90;;;;;;5103626;28;20518;-76
2023/07/10 02:10:51;;;;;;;0.00;0.00;;;16.80;99.90;;;;;;5078171;28;20040;-76
2023/07/10 02:13:17;;;;;;;0.40;0.40;;;16.70;99.90;;;;;;5094112;28;20043;-76
2023/07/10 02:15:43;;;;;;;0.73;0.40;;;16.70;99.90;;;;;;5077747;28;20653;-76
2023/07/10 02:18:09;;;;;;;0.47;0.20;;;16.60;99.90;;;;;;5079893;28;20035;-76
2023/07/10 02:20:34;;;;;;;0.20;0.20;;;16.60;99.90;;;;;;5078623;28;20055;-76
2023/07/10 02:23:00;;;;;;;0.10;0.10;;;16.60;99.90;;;;;;5077147;28;20562;-76
2023/07/10 02:25:26;;;;;;;0.00;0.00;;;16.50;99.90;;;;;;5094351;28;20384;-76
2023/07/10 02:27:51;;;;;;;0.30;0.30;;;16.50;99.90;;;;;;5105936;28;20072;-76
2023/07/10 02:30:17;;;;;;;0.27;0.27;;;16.40;99.90;;;;;;5094789;28;20082;-76
2023/07/10 02:32:43;;;;;;;0.67;0.67;;;16.30;99.90;;;;;;5074741;28;20047;-76
2023/07/10 02:35:09;;;;;;;0.10;0.10;;;16.30;99.90;;;;;;5083192;28;20035;-76
2023/07/10 02:37:35;;;;;;;0.00;0.00;;;16.20;99.90;;;;;;5075295;28;20437;-76
2023/07/10 02:40:01;;;;;;;0.00;0.00;;;16.20;99.90;;;;;;5090870;28;20054;-76
2023/07/10 02:42:27;;;;;;;0.00;0.00;;;16.10;99.90;;;;;;5076996;28;20031;-76
2023/07/10 02:44:53;;;;;;;0.00;0.00;;;16.00;99.90;;;;;;5081722;28;20298;-76
2023/07/10 02:47:18;;;;;;;0.00;0.00;;;15.90;99.90;;;;;;5076829;28;20285;-76
2023/07/10 02:49:44;;;;;;;1.23;0.43;;;15.80;99.90;;;;;;5092975;28;20047;-76
2023/07/10 02:52:10;;;;;;;0.27;0.03;;;15.70;99.90;;;;;;5106599;28;20483;-76
2023/07/10 02:54:35;;;;;;;0.00;0.00;;;15.60;99.90;;;;;;5079587;28;20126;-76
2023/07/10 02:57:01;;;;;;;0.00;0.00;;;15.60;99.90;;;;;;5080890;28;20039;-76
2023/07/10 02:59:28;;;;;;;0.10;0.10;;;15.50;99.90;;;;;;5089701;28;20525;-76
2023/07/10 03:01:54;;;;;;;0.00;0.00;;;15.50;99.90;;;;;;5095013;28;20044;-76
2023/07/10 03:04:19;;;;;;;0.00;0.00;;;15.50;99.90;;;;;;5076759;28;20293;-76
2023/07/10 03:06:49;;;;;;;0.03;0.03;;;15.50;99.90;;;;;;5076440;28;20407;-76
2023/07/10 03:09:15;;;;;;;0.00;0.00;;;15.40;99.90;;;;;;5093697;28;20565;-76
2023/07/10 03:11:41;;;;;;;0.00;0.00;;;15.40;99.90;;;;;;5075894;28;20274;-76
2023/07/10 03:14:07;;;;;;;0.00;0.00;;;15.40;99.90;;;;;;5085784;28;20703;-76
2023/07/10 03:16:32;;;;;;;0.00;0.00;;;15.30;99.90;;;;;;5075007;28;20343;-76
2023/07/10 03:18:58;;;;;;;0.00;0.00;;;15.30;99.90;;;;;;5091478;28;20046;-76
2023/07/10 03:21:25;;;;;;;0.00;0.00;;;15.30;99.90;;;;;;5092579;28;20040;-76
2023/07/10 03:23:51;;;;;;;0.00;0.00;;;15.30;99.90;;;;;;5092562;28;20165;-76
2023/07/10 03:26:17;;;;;;;0.63;0.63;;;15.30;99.90;;;;;;5098953;28;20281;-76
2023/07/10 03:28:43;;;;;;;0.00;0.00;;;15.30;99.90;;;;;;5086093;28;20297;-76
2023/07/10 03:31:09;;;;;;;0.00;0.00;;;15.30;99.90;;;;;;5089808;28;20285;-76
2023/07/10 03:33:35;;;;;;;0.00;0.00;;;15.30;99.90;;;;;;5077691;28;20377;-76
2023/07/10 03:36:06;;;;;;;0.30;0.23;;;15.30;99.90;;;;;;5089281;28;20039;-76
2023/07/10 03:38:32;;;;;;;0.00;0.00;;;15.40;99.90;;;;;;5103026;28;20502;-76
2023/07/10 03:40:58;;;;;;;0.10;0.10;;;15.40;99.90;;;;;;5089214;28;20297;-76
2023/07/10 03:43:26;;;;;;;0.00;0.00;;;15.30;99.90;;;;;;5094814;28;20382;-76
2023/07/10 03:45:52;;;;;;;0.00;0.00;;;15.40;99.90;;;;;;5090079;28;20280;-76
2023/07/10 03:48:18;;;;;;;0.00;0.00;;;15.40;99.90;;;;;;5092417;28;20289;-76
2023/07/10 03:50:44;;;;;;;0.10;0.10;;;15.30;99.90;;;;;;5074161;28;20286;-76
2023/07/10 03:53:10;;;;;;;0.10;0.10;;;15.30;99.90;;;;;;5075655;28;20285;-76
2023/07/10 03:55:35;;;;;;;0.10;0.10;;;15.30;99.90;;;;;;5078469;28;20071;-76
2023/07/10 03:58:01;;;;;;;0.23;0.20;;;15.30;99.90;;;;;;5099877;28;20043;-76
2023/07/10 04:00:27;;;;;;;0.10;0.10;;;15.20;99.90;;;;;;5091858;28;20083;-76
2023/07/10 04:02:53;;;;;;;0.00;0.00;;;15.30;99.90;;;;;;5075029;28;20067;-76
2023/07/10 04:05:19;;;;;;;0.00;0.00;;;15.30;99.90;;;;;;5095158;28;20043;-76
2023/07/10 04:07:44;;;;;;;0.00;0.00;;;15.40;99.90;;;;;;5074925;28;20179;-76
2023/07/10 04:10:10;;;;;;;0.07;0.00;;;15.40;99.90;;;;;;5089013;28;20039;-76
2023/07/10 04:12:40;;;;;;;0.10;0.10;;;15.40;99.90;;;;;;5093000;28;20490;-76
2023/07/10 04:15:06;;;;;;;0.60;0.30;;;15.50;99.90;;;;;;5074896;28;20038;-76
2023/07/10 04:17:32;;;;;;;1.90;0.10;;;15.50;99.90;;;;;;5078289;28;20298;-76
2023/07/10 04:19:58;;;;;;;0.10;0.10;;;15.50;99.90;;;;;;5094668;28;20305;-76
2023/07/10 04:22:23;;;;;;;1.33;0.53;;;15.60;99.90;;;;;;5092196;28;20522;-76
2023/07/10 04:24:49;;;;;;;0.00;0.00;;;15.60;99.90;;;;;;5091626;28;20073;-76
2023/07/10 04:27:15;;;;;;;0.50;0.10;;;15.60;99.90;;;;;;5072582;28;20055;-76
2023/07/10 04:29:41;;;;;;;0.00;0.00;;;15.70;99.90;;;;;;5077693;28;20142;-76
2023/07/10 04:32:08;;;;;;;0.30;0.10;;;15.70;99.90;;;;;;5100318;28;20074;-76
2023/07/10 04:34:34;;;;;;;0.23;0.10;;;15.60;99.90;;;;;;5087415;28;20039;-76
2023/07/10 04:37:00;;;;;;;0.10;0.10;;;15.70;99.90;;;;;;5076160;28;20294;-76
2023/07/10 04:39:26;;;;;;;0.20;0.20;;;15.70;99.90;;;;;;5085450;28;20537;-77
2023/07/10 04:41:51;;;;;;;0.03;0.00;;;15.70;99.90;;;;;;5091233;28;20065;-76
2023/07/10 04:44:17;;;;;;;0.10;0.10;;;15.70;99.90;;;;;;5078532;28;20414;-76
2023/07/10 04:46:43;;;;;;;0.00;0.00;;;15.80;99.90;;;;;;5069755;28;20122;-76
2023/07/10 04:49:09;;;;;;;0.10;0.00;;;15.90;99.90;;;;;;5074898;28;20047;-76
2023/07/10 04:51:34;;;;;;;0.23;0.10;;;15.90;99.90;;;;;;5069294;28;20043;-76
2023/07/10 04:54:00;;;;;;;0.20;0.20;;;16.00;99.90;;;;;;5081453;28;20036;-76
2023/07/10 04:56:25;;;;;;;0.50;0.13;;;16.10;99.90;;;;;;5070232;28;20043;-76
2023/07/10 04:58:54;;;;;;;0.57;0.30;;;16.20;99.90;;;;;;5085945;28;20054;-76
2023/07/10 05:01:23;;;;;;;0.67;0.20;;;16.30;99.90;;;;;;5080759;28;20063;-76
2023/07/10 05:03:49;;;;;;;0.00;0.00;;;16.70;99.90;;;;;;5076405;28;20779;-76
2023/07/10 05:06:16;;;;;;;0.77;0.20;;;17.10;99.90;;;;;;5068224;28;20278;-76
2023/07/10 05:08:41;;;;;;;0.10;0.10;;;17.20;99.90;;;;;;5084595;28;20363;-77
2023/07/10 05:11:07;;;;;;;0.00;0.00;;;17.10;99.90;;;;;;5087372;28;20397;-77
2023/07/10 05:13:33;;;;;;;0.17;0.00;;;17.00;99.90;;;;;;5083409;28;20047;-76
2023/07/10 05:15:59;;;;;;;0.00;0.00;;;16.90;99.90;;;;;;5079196;28;20036;-76
2023/07/10 05:18:26;;;;;;;0.00;0.00;;;16.70;99.90;;;;;;5073506;28;20479;-76
2023/07/10 05:20:53;;;;;;;0.00;0.00;;;16.60;99.90;;;;;;5079331;28;20297;-76
2023/07/10 05:23:19;;;;;;;0.13;0.13;;;16.60;99.90;;;;;;5078528;28;20347;-75
2023/07/10 05:26:15;;;;;;;1.60;0.63;;;16.60;99.90;;;;;;5068600;28;20285;-75
2023/07/10 05:28:40;;;;;;;0.00;0.00;;;16.50;99.90;;;;;;5063384;28;20108;-75
2023/07/10 05:31:08;;;;;;;1.60;0.07;;;16.50;99.90;;;;;;5083942;28;20710;-75
2023/07/10 05:33:36;;;;;;;0.27;0.27;;;16.50;99.90;;;;;;5071931;28;20058;-75
2023/07/10 05:36:05;;;;;;;9.87;5.17;;;16.60;99.90;;;;;;5071168;28;20282;-74
2023/07/10 05:38:32;;;;;;;15.57;6.70;;;17.10;99.90;;;;;;5085231;28;20281;-76
2023/07/10 05:40:58;;;;;;;12.63;5.70;;;17.60;99.90;;;;;;5074003;28;20288;-75
2023/07/10 05:43:24;;;;;;;16.03;6.73;;;17.80;99.90;;;;;;5060076;28;20286;-75
2023/07/10 05:45:51;;;;;;;12.93;6.07;;;17.90;99.90;;;;;;5077905;28;20675;-75
2023/07/10 05:48:17;;;;;;;15.40;6.73;;;18.10;99.90;;;;;;5070361;28;20032;-75
2023/07/10 05:50:45;;;;;;;11.77;4.63;;;18.40;99.90;;;;;;5088094;28;20984;-75
2023/07/10 05:53:11;;;;;;;9.77;4.57;;;18.80;99.90;;;;;;5059860;28;20122;-75
2023/07/10 05:55:42;;;;;;;7.90;3.87;;;19.10;99.90;;;;;;5076454;28;20282;-75
2023/07/10 05:58:08;;;;;;;10.37;4.27;;;19.50;99.90;;;;;;5066402;28;20043;-75
2023/07/10 06:00:33;;;;;;;9.63;4.30;;;19.80;99.90;;;;;;5068383;28;20044;-75
2023/07/10 06:02:59;;;;;;;10.10;3.73;;;19.90;99.90;;;;;;5092592;28;20029;-75
2023/07/10 06:05:24;;;;;;;8.90;3.20;;;19.80;99.90;;;;;;5072057;28;20491;-75
2023/07/10 06:07:50;;;;;;;9.07;2.93;;;19.80;99.90;;;;;;5096943;28;20136;-75
2023/07/10 06:10:16;;;;;;;7.90;3.10;;;19.80;99.90;;;;;;5080065;28;20040;-75
2023/07/10 06:12:42;;;;;;;8.07;2.80;;;19.80;99.90;;;;;;5054480;28;20048;-75
2023/07/10 06:15:09;;;;;;;11.90;3.00;;;19.90;99.90;;;;;;5074648;28;20567;-75
2023/07/10 06:17:34;;;;;;;10.40;3.13;;;19.90;99.90;;;;;;5071459;28;20038;-75
2023/07/10 06:20:00;;;;;;;10.67;3.07;;;20.10;99.90;;;;;;5083143;28;20036;-75
2023/07/10 06:22:26;;;;;;;7.90;2.70;;;20.40;99.90;;;;;;5067193;28;20067;-75
2023/07/10 06:24:52;;;;;;;8.37;3.10;;;20.50;99.90;;;;;;5085486;28;20403;-75
2023/07/10 06:27:17;;;;;;;11.67;2.80;;;20.30;99.90;;;;;;5077928;28;20088;-75
2023/07/10 06:29:43;;;;;;;9.03;2.80;;;20.00;99.90;;;;;;5078849;28;20466;-75
2023/07/10 06:32:09;;;;;;;9.90;2.83;;;20.00;99.90;;;;;;5075531;28;20044;-75
2023/07/10 06:34:34;;;;;;;6.73;2.90;;;20.20;99.90;;;;;;5078767;28;20085;-75
2023/07/10 06:37:00;;;;;;;9.00;2.73;;;20.50;99.90;;;;;;5084160;28;20028;-75
2023/07/10 06:39:27;;;;;;;10.07;3.30;;;20.70;99.90;;;;;;5082627;28;20458;-75
2023/07/10 06:41:53;;;;;;;8.10;3.20;;;20.90;99.90;;;;;;5073478;28;20058;-75
2023/07/10 06:44:19;;;;;;;8.83;2.97;;;21.10;99.90;;;;;;5073002;28;20035;-75
2023/07/10 06:46:45;;;;;;;7.80;2.80;;;21.40;99.30;;;;;;5073093;28;20047;-75
2023/07/10 06:49:11;;;;;;;14.63;3.23;;;21.50;96.80;;;;;;5073657;28;20036;-75
2023/07/10 06:51:37;;;;;;;12.77;3.50;;;21.70;93.80;;;;;;5088893;28;20048;-75
2023/07/10 06:54:03;;;;;;;9.47;2.80;;;21.80;95.20;;;;;;5073041;28;20073;-75
2023/07/10 06:56:30;;;;;;;10.30;3.27;;;21.90;95.90;;;;;;5080626;28;20042;-75
2023/07/10 06:58:56;;;;;;;10.77;3.00;;;22.00;95.70;;;;;;5072832;28;20422;-75
2023/07/10 07:01:22;;;;;;;13.07;2.73;;;22.00;94.90;;;;;;5073339;28;20040;-75
2023/07/10 07:03:48;;;;;;;13.50;3.10;;;22.00;93.90;;;;;;5086237;28;20623;-75
2023/07/10 07:06:13;;;;;;;11.70;2.40;;;21.80;90.70;;;;;;5083471;27;20035;-75
2023/07/10 07:08:41;;;;;;;9.13;2.80;;;21.60;95.00;;;;;;5091808;28;20116;-75
2023/07/10 07:11:07;;;;;;;10.83;3.67;;;21.40;94.40;;;;;;5072225;28;20487;-75
2023/07/10 07:13:33;;;;;;;11.60;3.37;;;21.20;93.30;;;;;;5105041;28;20088;-75
2023/07/10 07:15:59;;;;;;;11.00;3.37;;;21.00;96.40;;;;;;5090556;28;20047;-75
2023/07/10 07:18:25;;;;;;;8.83;2.87;;;20.80;97.10;;;;;;5061997;28;20059;-75
2023/07/10 07:20:51;;;;;;;12.33;3.20;;;20.70;99.60;;;;;;5081550;28;20043;-76
2023/07/10 07:23:16;;;;;;;15.23;3.90;;;20.60;99.90;;;;;;5066422;28;20592;-75
2023/07/10 07:25:42;;;;;;;10.23;3.30;;;20.60;99.90;;;;;;5063352;28;20063;-75
2023/07/10 07:28:08;;;;;;;13.30;3.70;;;20.50;99.90;;;;;;5072125;28;20465;-75
2023/07/10 07:30:34;;;;;;;10.57;3.33;;;20.40;99.50;;;;;;5063666;28;20078;-75
2023/07/10 07:33:01;;;;;;;10.27;3.30;;;20.30;99.90;;;;;;5074658;28;20075;-75
2023/07/10 07:35:27;;;;;;;11.33;4.10;;;20.30;99.90;;;;;;5081490;28;20079;-75
2023/07/10 07:37:53;;;;;;;8.43;3.43;;;20.30;98.40;;;;;;5072798;28;20048;-75
2023/07/10 07:40:19;;;;;;;12.23;3.77;;;20.40;99.40;;;;;;5071255;28;20085;-75
2023/07/10 07:42:46;;;;;;;9.90;3.70;;;20.60;99.90;;;;;;5067735;28;21012;-75
2023/07/10 07:45:13;;;;;;;13.53;3.67;;;20.60;99.90;;;;;;5086945;28;20036;-75
2023/07/10 07:47:40;;;;;;;12.27;3.83;;;20.60;98.30;;;;;;5054374;28;20067;-75
2023/07/10 07:50:07;;;;;;;13.67;3.63;;;20.60;99.00;;;;;;5072210;28;20081;-75
2023/07/10 07:52:33;;;;;;;15.30;4.10;;;20.70;99.50;;;;;;5078589;28;20036;-75
2023/07/10 07:54:59;;;;;;;11.00;3.93;;;20.80;99.90;;;;;;5069291;28;20051;-75
2023/07/10 07:57:25;;;;;;;12.10;3.77;;;20.90;99.20;;;;;;5081996;28;20032;-75
2023/07/10 07:59:52;;;;;;;14.47;3.40;;;20.90;99.80;;;;;;5062204;28;20040;-75
2023/07/10 08:02:18;;;;;;;10.53;3.83;;;20.90;98.00;;;;;;5068428;28;20043;-75
2023/07/10 08:04:44;;;;;;;14.03;3.90;;;20.80;97.30;;;;;;5071023;28;20034;-75
2023/07/10 08:07:10;;;;;;;13.07;3.70;;;20.90;98.90;;;;;;5062661;28;20104;-75
2023/07/10 08:09:35;;;;;;;15.03;3.93;;;20.90;99.90;;;;;;5079481;28;20039;-74
2023/07/10 08:12:03;;;;;;;12.20;4.03;;;21.00;98.80;;;;;;5073508;28;20088;-74
2023/07/10 08:14:29;;;;;;;13.90;3.63;;;21.00;96.80;;;;;;5073144;28;21220;-74
2023/07/10 08:16:55;;;;;;;11.17;4.30;;;21.00;95.80;;;;;;5078892;28;20085;-74
2023/07/10 08:19:21;;;;;;;10.47;3.13;;;21.00;97.10;;;;;;5078516;28;20036;-74
2023/07/10 08:21:47;;;;;;;15.07;4.00;;;21.10;96.30;;;;;;5067440;28;20038;-74
2023/07/10 08:24:13;;;;;;;8.90;2.90;;;21.10;97.00;;;;;;5085398;28;20118;-74
2023/07/10 08:26:38;;;;;;;13.07;3.13;;;21.30;95.90;;;;;;5078835;28;20122;-74
2023/07/10 08:29:30;;;;;;;11.97;3.13;;;21.20;94.00;;;;;;5077719;28;20052;-74
2023/07/10 08:31:58;;;;;;;15.07;2.93;;;21.10;90.50;;;;;;5074444;28;20087;-74
2023/07/10 08:34:25;;;;;;;13.17;3.50;;;21.10;92.60;;;;;;5068650;28;20114;-74
2023/07/10 08:36:54;;;;;;;14.87;3.47;;;21.20;96.40;;;;;;5066561;28;20040;-74
2023/07/10 08:39:23;;;;;;;13.33;3.00;;;21.20;91.20;;;;;;5068568;28;20036;-74
2023/07/10 08:41:55;;;;;;;12.27;2.73;;;21.20;94.00;;;;;;5077979;28;20146;-73
2023/07/10 08:44:27;;;;;;;10.70;3.03;;;21.30;89.90;;;;;;5085973;28;20040;-74
2023/07/10 08:46:53;;;;;;;11.47;3.10;;;21.30;93.00;;;;;;5054867;28;20760;-74
2023/07/10 08:49:40;;;;;;;13.20;2.87;;;21.60;94.60;;;;;;5068074;28;20083;-74
2023/07/10 08:52:11;;;;;;;10.27;3.07;;;21.70;89.70;;;;;;5071075;28;20044;-74
2023/07/10 08:54:37;;;;;;;14.17;3.00;;;21.70;90.40;;;;;;5064743;28;20116;-73
2023/07/10 08:57:29;;;;;;;12.23;4.03;;;21.80;91.30;;;;;;5063437;28;20048;-74
2023/07/10 09:00:04;;;;;;;11.80;3.23;;;21.60;86.90;;;;;;5072378;28;20105;-74
2023/07/10 09:02:44;;;;;;;11.47;3.27;;;21.60;88.20;;;;;;5074624;28;20075;-75
2023/07/10 09:05:24;;;;;;;13.87;3.53;;;21.60;87.10;;;;;;5068665;28;20040;-74
2023/07/10 09:07:50;;;;;;;13.87;3.67;;;21.70;88.40;;;;;;5085345;28;20071;-74
2023/07/10 09:10:23;;;;;;;14.20;3.33;;;21.60;87.40;;;;;;5078659;28;20119;-74
2023/07/10 09:12:59;;;;;;;10.87;3.10;;;21.70;87.60;;;;;;5069698;28;20055;-74
2023/07/10 09:15:31;;;;;;;14.60;3.50;;;21.90;88.70;;;;;;5068436;28;20150;-74
2023/07/10 09:18:00;;;;;;;15.90;3.47;;;22.00;87.90;;;;;;5085221;28;20032;-74
2023/07/10 09:20:26;;;;;;;14.37;3.87;;;21.90;85.20;;;;;;5085720;28;20127;-74
2023/07/10 09:22:56;;;;;;;12.50;3.80;;;21.80;83.90;;;;;;5075871;28;20155;-74
2023/07/10 09:25:23;;;;;;;13.97;3.43;;;21.70;85.20;;;;;;5078243;28;20071;-74
2023/07/10 09:27:49;;;;;;;14.03;3.80;;;21.90;87.10;;;;;;5067846;28;20040;-74
2023/07/10 09:30:39;;;;;;;11.03;2.83;;;22.10;86.10;;;;;;5089009;28;20054;-74
2023/07/10 09:33:08;;;;;;;12.80;3.83;;;22.10;84.60;;;;;;5070112;28;20071;-74
2023/07/10 09:35:36;;;;;;;12.03;3.30;;;22.30;86.20;;;;;;5099091;28;20780;-74
2023/07/10 09:38:02;;;;;;;13.23;4.37;;;22.50;86.10;;;;;;5085005;28;20039;-74
2023/07/10 09:40:49;;;;;;;14.20;3.90;;;22.70;86.90;;;;;;5091078;28;20075;-74
2023/07/10 09:43:21;;;;;;;13.33;3.63;;;22.70;82.70;;;;;;5072410;28;20044;-74
2023/07/10 09:45:49;;;;;;;13.27;3.67;;;22.50;82.20;;;;;;5088855;28;20110;-74
2023/07/10 09:48:25;;;;;;;13.10;3.93;;;22.40;83.30;;;;;;5088994;28;20061;-74
2023/07/10 09:50:53;;;;;;;14.60;3.77;;;22.20;82.20;;;;;;5085868;28;20064;-74
2023/07/10 09:53:36;;;;;;;13.17;3.47;;;22.30;82.50;;;;;;5069673;28;20111;-74
2023/07/10 09:56:02;;;;;;;11.07;3.97;;;22.00;80.00;;;;;;5062518;28;20077;-74
2023/07/10 09:58:28;;;;;;;17.30;3.73;;;22.10;83.80;;;;;;5088651;28;20035;-74
2023/07/10 10:00:58;;;;;;;11.07;3.50;;;22.30;84.00;;;;;;5094407;28;20040;-74
2023/07/10 10:03:27;;;;;;;13.93;3.10;;;22.60;82.30;;;;;;5082174;28;20059;-74
2023/07/10 10:05:57;;;;;;;14.30;4.30;;;22.70;80.90;;;;;;5092837;28;20048;-74
2023/07/10 10:08:45;;;;;;;13.77;3.87;;;22.70;80.90;;;;;;5087801;28;20036;-74
2023/07/10 10:11:12;;;;;;;16.50;3.50;;;22.80;79.70;;;;;;5093410;28;20047;-74
2023/07/10 10:14:00;;;;;;;9.20;3.43;;;22.70;81.30;;;;;;5092137;28;20126;-74
2023/07/10 10:16:40;;;;;;;15.30;3.70;;;22.80;81.30;;;;;;5091221;28;20055;-74
2023/07/10 10:19:23;;;;;;;16.10;4.07;;;22.60;78.00;;;;;;5093901;28;20044;-74
2023/07/10 10:21:49;;;;;;;13.33;3.23;;;22.50;78.90;;;;;;5091264;28;20055;-74
2023/07/10 10:24:15;;;;;;;14.67;3.20;;;22.40;81.10;;;;;;5078351;28;20672;-74
2023/07/10 10:27:13;;;;;;;10.47;3.10;;;22.50;80.50;;;;;;5098521;28;20043;-74
2023/07/10 10:29:54;;;;;;;12.37;3.13;;;22.60;80.00;;;;;;5097663;28;20142;-74
2023/07/10 10:32:39;;;;;;;16.13;3.70;;;22.70;80.80;;;;;;5070557;28;20044;-74
2023/07/10 10:35:22;;;;;;;7.38;2.55;;;22.90;77.80;;;;;;5093258;28;20044;-74
2023/07/10 10:38:00;;;;;;;11.77;2.67;;;23.00;75.00;;;;;;5098136;28;20032;-74
2023/07/10 10:40:29;;;;;;;7.80;2.73;;;23.00;75.60;;;;;;5086483;28;20039;-74
2023/07/10 10:43:17;;;;;;;12.23;2.80;;;23.00;76.30;;;;;;5091857;28;20105;-74
2023/07/10 10:45:51;;;;;;;12.77;2.77;;;23.00;76.40;;;;;;5088269;28;20035;-74
2023/07/10 10:49:01;;;;;;;10.37;2.50;;;23.10;78.40;;;;;;5091419;28;20505;-74
2023/07/10 10:51:59;;;;;;;9.93;2.20;;;23.30;78.10;;;;;;5084782;28;20039;-74
2023/07/10 10:54:39;;;;;;;8.53;2.40;;;23.50;77.70;;;;;;5065739;28;20411;-74
2023/07/10 10:57:28;;;;;;;9.17;2.53;;;23.60;76.20;;;;;;5089351;28;20075;-74
2023/07/10 11:00:12;;;;;;;6.57;1.90;;;23.80;73.80;;;;;;5092030;28;20131;-74
2023/07/10 11:02:40;;;;;;;13.97;2.20;;;24.00;73.10;;;;;;5074242;28;20039;-74
2023/07/10 11:05:13;;;;;;;9.70;2.07;;;24.10;74.50;;;;;;5090371;28;20148;-74
2023/07/10 11:07:42;;;;;;;9.73;2.43;;;24.20;72.90;;;;;;5084789;28;20035;-74
2023/07/10 11:10:15;;;;;;;10.03;2.87;;;24.10;72.60;;;;;;5090966;28;20497;-74
2023/07/10 11:12:41;;;;;;;7.87;2.23;;;24.00;71.20;;;;;;5073763;28;20100;-74
2023/07/10 11:15:17;;;;;;;6.13;1.77;;;23.90;72.60;;;;;;5074619;28;20400;-74
2023/07/10 11:17:48;;;;;;;6.43;1.57;;;24.00;72.00;;;;;;5073961;28;20043;-74
2023/07/10 11:20:26;;;;;;;6.60;1.80;;;23.80;67.90;;;;;;5087927;28;20152;-74
2023/07/10 11:22:57;;;;;;;7.43;1.60;;;23.50;68.80;;;;;;5074117;28;20123;-74
2023/07/10 11:25:32;;;;;;;8.03;1.57;;;23.30;68.80;;;;;;5091426;28;20137;-73
2023/07/10 11:28:02;;;;;;;9.00;1.67;;;23.10;70.30;;;;;;5086035;28;20059;-73
2023/07/10 11:30:34;;;;;;;8.53;1.60;;;23.00;69.80;;;;;;5082319;28;20079;-73
2023/07/10 11:33:20;;;;;;;9.67;2.43;;;23.10;70.60;;;;;;5083499;28;20055;-73
2023/07/10 11:36:24;;;;;;;7.73;1.90;;;23.20;69.60;;;;;;5086899;28;20039;-73
2023/07/10 11:38:55;;;;;;;12.13;2.40;;;23.20;68.90;;;;;;5042989;28;20071;-73
2023/07/10 11:41:33;;;;;;;6.73;1.70;;;23.20;72.50;;;;;;5090247;28;20113;-73
2023/07/10 11:44:14;;;;;;;13.00;2.37;;;23.30;69.50;;;;;;5083272;28;20499;-73
2023/07/10 11:47:05;;;;;;;7.53;1.30;;;23.40;68.80;;;;;;5088231;28;20123;-73
2023/07/10 11:49:44;;;;;;;6.23;1.10;;;23.40;63.80;;;;;;5086248;28;20103;-73
2023/07/10 11:52:16;;;;;;;7.80;1.40;;;23.40;63.00;;;;;;5064913;28;20048;-73
2023/07/10 11:54:47;;;;;;;7.70;1.00;;;23.20;60.60;;;;;;5062369;28;20828;-73
2023/07/10 11:57:24;;;;;;;5.60;0.93;;;23.10;61.70;;;;;;5067430;28;20077;-73
2023/07/10 11:59:54;;;;;;;5.43;1.07;;;23.10;65.60;;;;;;5072519;28;20549;-73
2023/07/10 12:02:27;;;;;;;6.00;0.80;;;23.20;66.10;;;;;;5071227;28;20406;-73
2023/07/10 12:04:53;;;;;;;4.77;0.97;;;23.40;63.90;;;;;;5085194;28;20491;-73
2023/07/10 12:07:19;;;;;;;6.20;0.90;;;23.50;63.90;;;;;;5091593;28;20082;-73
2023/07/10 12:10:11;;;;;;;11.13;1.20;;;23.60;63.50;;;;;;5072115;28;20042;-73
2023/07/10 12:12:37;;;;;;;5.27;1.13;;;23.50;59.00;;;;;;5074339;28;20131;-73
2023/07/10 12:15:04;;;;;;;6.97;1.10;;;23.30;59.70;;;;;;5082950;28;20123;-73
2023/07/10 12:17:32;;;;;;;5.30;0.90;;;23.20;58.30;;;;;;5071811;28;20038;-73
2023/07/10 12:20:04;;;;;;;5.90;1.13;;;23.20;59.30;;;;;;5067422;28;20040;-73
2023/07/10 12:22:37;;;;;;;5.70;1.23;;;23.10;59.90;;;;;;5068592;28;20093;-73
2023/07/10 12:25:12;;;;;;;7.40;1.10;;;23.10;62.40;;;;;;5073306;28;20036;-73
2023/07/10 12:27:38;;;;;;;;;;;23.10;62.50;;;;;;5083443;28;20059;-73
2023/07/10 12:30:14;;;;;;;4.37;0.90;;;23.10;61.60;;;;;;5060039;28;19919;-73
2023/07/10 12:32:39;;;;;;;5.93;1.00;;;23.20;63.50;;;;;;5071865;28;20043;-73
2023/07/10 12:35:35;;;;;;;5.17;1.00;;;23.30;61.70;;;;;;5067150;28;20035;-73
2023/07/10 12:38:03;;;;;;;4.07;0.97;;;23.30;62.60;;;;;;5065147;28;20545;-73
2023/07/10 12:40:30;;;;;;;5.47;0.93;;;23.40;61.10;;;;;;5089638;28;20071;-73
2023/07/10 12:43:05;;;;;;;4.97;0.93;;;23.40;60.20;;;;;;5082841;28;20040;-73
2023/07/10 12:45:32;;;;;;;7.10;1.13;;;23.40;60.50;;;;;;5069230;28;20064;-73
2023/07/10 12:48:17;;;;;;;5.80;1.00;;;23.50;62.90;;;;;;5074657;28;20198;-73
2023/07/10 12:50:47;;;;;;;2.97;0.73;;;23.50;59.50;;;;;;5076770;28;20047;-73
2023/07/10 12:53:18;;;;;;;4.13;0.70;;;23.40;58.80;;;;;;5056981;28;20285;-73
2023/07/10 12:55:44;;;;;;;4.40;0.70;;;23.30;58.20;;;;;;5075726;28;20036;-73